CSG weather

Columbus Metropolitan Airport
Columbus, Georgia, United States

Public forecast

Using degrees Fahrenheit for public forecast. Weather courtesy of forecast.io.

METAR (pilot weather report)

Retrieved 2019/08/20 07:51 UTC (48 minutes ago):

KCSG 200751Z AUTO 22004KT 10SM CLR 24/22 A3006 RMK AO2 LTG DSNT SW SLP173 T02390222

TAF (pilot weather forecast)

Forecast is more than 12 hours old.

Retrieved 2019/08/19 00:36 UTC (1 day ago):

TAF KCSG 192334Z 2000/2024 08006KT P6SM VCSH SCT035 FM200600 00000KT 4SM BR BKN080 FM201100 00000KT 4SM BR BKN012 FM201200 00000KT 4SM BR BKN005 FM201400 VRB03KT P6SM BKN012 FM201700 VRB03KT P6SM BKN040 PROB30 2018/2024 4SM TSRA OVC025CB